Aeroporto :
LOGIN :

Iscrizione | Disclaimer

   EN    FR    IT 

 










Sommario :    VFR   VFR Marginale   IFR   IFR Intensivo   IFR Molto Intensivo
Visibilità : 
Base nubi : 
>= 8 km
>= 3000ft
5 / 8 km
1000 / 3000 ft
1500m / 5 km
500 / 1000 ft
800 / 1500m
200 / 500 ft
< 800m
< 200 ft
Simboli :   Temporali  Nebbia  Neve Forte  Precipitazioni Forti  Vento > 20 kt
SIGMETs :   Varie  Temporali  Ghiacco  Turbolenza  Onda orograficha  Ceneri Vulcaniche






- Altitudine del aeroporto : 266 ft
- Codice IATA : NCL


EGNT - Newcastle

ULTIMO METAR :
  • 051620Z 23020KT 190V260 9999 FEW025 SCT035 10/07 Q0999

METARs OBSOLETI :
  • 051550Z 23019G34KT 200V260 9999 FEW022 SCT035 10/07 Q0999
  • 051520Z 23020G34KT 170V260 9999 -SHRA FEW002 BKN036 10/07 Q1000
  • 051450Z 23018G30KT 200V260 9999 -SHRA FEW022 SCT046 09/07 Q1001
  • 051420Z 23019G32KT 9999 FEW022 SCT046 09/06 Q1002
  • 051350Z 23020G33KT 180V260 9999 FEW022 BKN036 09/06 Q1003

TAF TAF EGNT
Valido dal 05 a 12 ore il 06 a 12 ore UTC


051100Z 0512/0612 23012KT 9999 SCT030
TEMPO 0512/0523 24020G35KT
PROB40
TEMPO 0515/0607 8000 -RA BKN012
PROB40
TEMPO 0609/0612 26018G28KT 7000 SHRA
ATIS : +44 191 214 3400



MetMap, La meteo Aeronautica in un colpo d'occhio ! - Copyright ORBIFLY Dicembre 2007 - Disclaimer

ORBIFLY MET'MAP TEAM :

Programmazione e sviluppo : Alexandra Zaïnal
Concezione : Baudouin d'Aumeries
Aiuto per la programmazione : Marc-Olivier Méhu
Supporto tecnico e logistico : Manuel Goepfert
Aiuto per la traduzione : Arnaldo La Scala

Contatto : metmap@orbifly.com




FONTI E CREDITI :

   NOAA